»·PEaware :: N786SG KLAS-KSLC

N786SG :: KLAS-KSLC

FLIGHT INFORMATION

Flight Status: Arrived
Operator: Privately registered:
United States
More flights under this callsign
Pilot: Sulaiman S. (16428)
Aircraft: BOMBARDIER BD-100 CHALLENGER 300
(CL30)
More flights by this aircraft type
Origin: KLAS McCarran Intl
United States
Destination: KSLC Salt Lake City Intl
United States
More flights between these airports :: More routes between these airports
Route: +TRALR8 MLF JAMMN5
File this flight plan on PilotEdge
Remarks:
Altitude:
(Current/Filed)
39,000ft
Speed:
(Current/Filed)
450kts
Departed: 12-Oct-17 09:16 PM
Arrived: 12-Oct-17 10:12 PM
Distance/Time
Traveled:
319nm/0:56
Distance/Time
To Go:
Arrived

Flight Plot

Page will automatically refresh every two minutes.

Flight plan parsing failed; only flown route is shown


Map Options




Map Legend


Flown Route
Filed Route
Departure Airport
Arrival Airport
Navaid (VOR, NDB)
Fix

Horizontal Profiles

Position Reports

Time Latitude Longitude Heading Altitude Ground
Speed
12-Oct-17 20:52 36.082660 -115.170078 89 2148ft 0kts
12-Oct-17 20:53 36.082660 -115.170078 89 2148ft 0kts
12-Oct-17 20:54 36.082660 -115.170078 89 2148ft 0kts
12-Oct-17 20:55 36.082660 -115.170078 89 2148ft 0kts
12-Oct-17 20:56 36.082660 -115.170078 89 2148ft 0kts
12-Oct-17 20:57 36.082660 -115.170078 89 2148ft 0kts
12-Oct-17 20:58 36.082660 -115.170078 89 2148ft 0kts
12-Oct-17 20:59 36.082660 -115.170078 89 2148ft 0kts
12-Oct-17 21:00 36.082660 -115.170078 89 2148ft 0kts
12-Oct-17 21:01 36.082660 -115.170078 89 2148ft 0kts
12-Oct-17 21:02 36.082660 -115.170078 89 2148ft 0kts
12-Oct-17 21:03 36.082660 -115.170078 89 2148ft 0kts
12-Oct-17 21:04 36.082660 -115.170078 89 2148ft 0kts
12-Oct-17 21:05 36.082660 -115.170078 89 2148ft 0kts
12-Oct-17 21:06 36.082660 -115.170078 89 2148ft 0kts
12-Oct-17 21:07 36.082660 -115.170078 89 2148ft 0kts
12-Oct-17 21:08 36.082660 -115.170078 89 2148ft 0kts
12-Oct-17 21:09 36.082660 -115.170078 89 2148ft 0kts
12-Oct-17 21:10 36.082660 -115.170078 89 2148ft 0kts
12-Oct-17 21:11 36.082660 -115.170078 89 2148ft 0kts
12-Oct-17 21:12 36.082660 -115.170078 89 2148ft 0kts
12-Oct-17 21:13 36.082660 -115.170078 89 2148ft 0kts
12-Oct-17 21:14 36.082519 -115.169817 144 2148ft 9kts
12-Oct-17 21:15 36.083785 -115.167940 24 2148ft 17kts
12-Oct-17 21:16 36.089538 -115.164639 24 2147ft 28kts
12-Oct-17 21:17 36.095312 -115.161332 24 2148ft 12kts
12-Oct-17 21:18 36.098662 -115.159424 25 2148ft 18kts
12-Oct-17 21:19 36.099843 -115.157545 93 2148ft 0kts
12-Oct-17 21:20 36.099831 -115.157396 100 2148ft 4kts
12-Oct-17 21:21 36.095186 -115.159011 204 2148ft 80kts
12-Oct-17 21:22 36.047260 -115.186633 204 4387ft 271kts
12-Oct-17 21:23 35.998767 -115.248463 239 6687ft 251kts
12-Oct-17 21:24 35.935925 -115.280236 168 8610ft 305kts
12-Oct-17 21:25 35.874677 -115.220576 97 13221ft 337kts
12-Oct-17 21:26 35.867562 -115.101185 92 17104ft 366kts
12-Oct-17 21:27 35.907457 -114.979681 61 19053ft 429kts
12-Oct-17 21:28 35.963077 -114.845721 63 19024ft 445kts
12-Oct-17 21:29 36.015950 -114.708430 63 19024ft 446kts
12-Oct-17 21:30 36.070647 -114.566325 62 21574ft 471kts
12-Oct-17 21:31 36.127420 -114.418306 62 23654ft 493kts
12-Oct-17 21:32 36.184338 -114.269219 63 25409ft 512kts
12-Oct-17 21:33 36.247073 -114.107579 62 27379ft 533kts
12-Oct-17 21:34 36.312309 -113.939212 62 29350ft 556kts
12-Oct-17 21:35 36.379855 -113.764023 62 31456ft 568kts
12-Oct-17 21:36 36.472748 -113.611947 32 33968ft 551kts
12-Oct-17 21:37 36.607161 -113.544373 355 36373ft 511kts
12-Oct-17 21:38 36.749355 -113.517792 2 38479ft 525kts
12-Oct-17 21:39 36.891848 -113.476587 4 39087ft 528kts
12-Oct-17 21:40 37.032455 -113.433389 4 39090ft 523kts
12-Oct-17 21:41 37.169967 -113.390649 4 39099ft 517kts
12-Oct-17 21:42 37.307738 -113.347617 4 39187ft 511kts
12-Oct-17 21:43 37.443660 -113.304903 3 39172ft 508kts
12-Oct-17 21:44 37.579958 -113.262102 4 39179ft 508kts
12-Oct-17 21:44 37.692660 -113.226493 4 39181ft 509kts
12-Oct-17 21:46 37.849489 -113.176762 4 39183ft 509kts
12-Oct-17 21:47 37.986250 -113.133219 4 39185ft 509kts
12-Oct-17 21:48 38.120553 -113.090295 4 39179ft 510kts
12-Oct-17 21:49 38.257287 -113.046424 4 39179ft 510kts
12-Oct-17 21:50 38.393022 -112.994624 12 39184ft 522kts
12-Oct-17 21:50 38.541771 -112.916472 13 39185ft 526kts
12-Oct-17 21:51 38.676555 -112.844453 13 39189ft 529kts
12-Oct-17 21:53 38.833437 -112.760052 12 38529ft 529kts
12-Oct-17 21:54 38.967173 -112.687819 12 36153ft 526kts
12-Oct-17 21:54 39.078872 -112.627318 12 32884ft 534kts
12-Oct-17 21:55 39.182087 -112.571180 13 31524ft 534kts
12-Oct-17 21:56 39.314976 -112.501357 4 29974ft 514kts
12-Oct-17 21:57 39.446315 -112.457707 3 28334ft 461kts
12-Oct-17 21:58 39.563814 -112.418741 4 26259ft 431kts
12-Oct-17 21:59 39.682324 -112.379356 5 24060ft 452kts
12-Oct-17 22:00 39.802892 -112.338936 7 21808ft 444kts
12-Oct-17 22:01 39.916557 -112.300710 8 18836ft 409kts
12-Oct-17 22:02 40.019451 -112.266042 8 16993ft 388kts
12-Oct-17 22:03 40.123842 -112.230707 8 16985ft 381kts
12-Oct-17 22:04 40.223642 -112.196837 8 16987ft 368kts
12-Oct-17 22:05 40.302042 -112.170189 8 16086ft 359kts
12-Oct-17 22:06 40.410838 -112.133353 14 14002ft 342kts
12-Oct-17 22:07 40.508057 -112.099826 13 13993ft 361kts
12-Oct-17 22:08 40.604082 -112.066738 9 13990ft 365kts
12-Oct-17 22:09 40.703271 -112.051346 354 13029ft 359kts
12-Oct-17 22:10 40.799944 -112.057117 354 10914ft 343kts
12-Oct-17 22:11 40.893050 -112.068918 354 8386ft 331kts
12-Oct-17 22:12 40.949985 -112.019422 112 6004ft 285kts
12-Oct-17 22:13 40.892659 -112.000578 188 5921ft 200kts
12-Oct-17 22:14 40.845005 -112.003644 173 4980ft 135kts
12-Oct-17 22:15 40.810844 -111.999670 173 4373ft 116kts
12-Oct-17 22:16 40.797060 -111.997995 176 4234ft 0kts
12-Oct-17 22:17 40.794878 -111.996686 42 4234ft 13kts
12-Oct-17 22:18 40.792160 -111.994306 171 4233ft 17kts
12-Oct-17 22:19 40.792191 -111.986929 85 4234ft 21kts

Navigation Log

Ident Type
Flight plan parsing failed, navigation log unavailable